Time;durP1;ratioP1;P1;durP2;ratioP2;P2;SDS_P1;SDS_P2;PMS_P1;PMS_P2;Temp;Humidity;BMP_temperature;BMP_pressure;BME280_temperature;BME280_humidity;BME280_pressure;Samples;Min_cycle;Max_cycle;Signal;HPM_P1;HPM_P2
2022/01/11 00:01:03;;;;;;;0.50;0.50;;;;;;;;;;5031406;28;20602;-63
2022/01/11 00:03:29;;;;;;;0.55;0.55;;;;;;;;;;5031183;28;20280;-63
2022/01/11 00:06:00;;;;;;;0.50;0.50;;;;;;;;;;5031398;28;20201;-63
2022/01/11 00:08:31;;;;;;;0.50;0.50;;;;;;;;;;5031330;28;20170;-63
2022/01/11 00:11:03;;;;;;;0.50;0.50;;;;;;;;;;5031555;28;20643;-63
2022/01/11 00:13:30;;;;;;;0.50;0.50;;;;;;;;;;5031174;28;20596;-63
2022/01/11 00:15:56;;;;;;;0.50;0.50;;;;;;;;;;5044700;22;20207;-66
2022/01/11 00:18:22;;;;;;;0.50;0.50;;;;;;;;;;5011558;28;20183;-64
2022/01/11 00:20:48;;;;;;;0.50;0.50;;;;;;;;;;5011723;28;20392;-65
2022/01/11 00:25:41;;;;;;;0.50;0.50;;;;;;;;;;5011707;28;20177;-65
2022/01/11 00:28:08;;;;;;;0.50;0.50;;;;;;;;;;5011643;28;20405;-65
2022/01/11 00:30:37;;;;;;;0.40;0.40;;;;;;;;;;5011993;28;20202;-65
2022/01/11 00:33:07;;;;;;;0.50;0.50;;;;;;;;;;5011583;28;20202;-65
2022/01/11 00:35:49;;;;;;;0.40;0.40;;;;;;;;;;5011574;28;20169;-65
2022/01/11 00:38:18;;;;;;;0.50;0.50;;;;;;;;;;5011664;28;20170;-65
2022/01/11 00:40:48;;;;;;;0.50;0.50;;;;;;;;;;5011435;28;20585;-66
2022/01/11 00:43:16;;;;;;;0.60;0.60;;;;;;;;;;5011255;28;20201;-65
2022/01/11 00:45:42;;;;;;;0.50;0.50;;;;;;;;;;4993776;28;20169;-65
2022/01/11 00:48:09;;;;;;;0.50;0.50;;;;;;;;;;5011461;28;20668;-65
2022/01/11 00:50:36;;;;;;;0.50;0.50;;;;;;;;;;5011488;28;20180;-65
2022/01/11 00:53:03;;;;;;;0.50;0.50;;;;;;;;;;5011073;28;20200;-65
2022/01/11 00:55:29;;;;;;;0.60;0.60;;;;;;;;;;5011371;28;20181;-65
2022/01/11 00:57:55;;;;;;;0.50;0.50;;;;;;;;;;4993671;28;20195;-65
2022/01/11 01:00:21;;;;;;;0.50;0.50;;;;;;;;;;5011362;28;20476;-65
2022/01/11 01:02:46;;;;;;;0.50;0.50;;;;;;;;;;4993413;28;20424;-65
2022/01/11 01:05:17;;;;;;;0.50;0.50;;;;;;;;;;5011278;28;20408;-65
2022/01/11 01:07:43;;;;;;;0.50;0.50;;;;;;;;;;5011081;28;20992;-65
2022/01/11 01:10:19;;;;;;;0.50;0.50;;;;;;;;;;5011071;28;20170;-65
2022/01/11 01:12:45;;;;;;;0.50;0.50;;;;;;;;;;5011136;28;20980;-65
2022/01/11 01:15:11;;;;;;;0.50;0.50;;;;;;;;;;5011139;28;20252;-65
2022/01/11 01:17:37;;;;;;;0.50;0.50;;;;;;;;;;5011043;28;20253;-65
2022/01/11 01:20:04;;;;;;;0.50;0.50;;;;;;;;;;5011175;28;20425;-65
2022/01/11 01:22:30;;;;;;;0.50;0.50;;;;;;;;;;5010878;28;20772;-65
2022/01/11 01:24:56;;;;;;;0.50;0.50;;;;;;;;;;5011076;28;20206;-65
2022/01/11 01:27:21;;;;;;;0.50;0.50;;;;;;;;;;5011035;28;20496;-65
2022/01/11 01:29:47;;;;;;;0.60;0.60;;;;;;;;;;5011147;28;20405;-65
2022/01/11 01:32:13;;;;;;;0.53;0.53;;;;;;;;;;5011023;28;20393;-65
2022/01/11 01:34:39;;;;;;;0.50;0.50;;;;;;;;;;5011813;28;20407;-65
2022/01/11 01:37:07;;;;;;;0.60;0.60;;;;;;;;;;5014279;28;20435;-65
2022/01/11 01:39:33;;;;;;;0.50;0.50;;;;;;;;;;5014514;28;20975;-66
2022/01/11 01:41:59;;;;;;;0.50;0.50;;;;;;;;;;5014908;28;20181;-65
2022/01/11 01:44:26;;;;;;;0.50;0.50;;;;;;;;;;5014107;28;20213;-65
2022/01/11 01:46:52;;;;;;;0.50;0.50;;;;;;;;;;5014315;28;20196;-65
2022/01/11 01:49:20;;;;;;;0.50;0.50;;;;;;;;;;5014231;28;20253;-65
2022/01/11 01:51:47;;;;;;;0.40;0.40;;;;;;;;;;5014149;28;20441;-65
2022/01/11 01:54:13;;;;;;;0.60;0.60;;;;;;;;;;5013975;28;20182;-66
2022/01/11 01:56:39;;;;;;;0.60;0.60;;;;;;;;;;4996525;28;20619;-65
2022/01/11 01:59:05;;;;;;;0.60;0.60;;;;;;;;;;5014227;28;20179;-65
2022/01/11 02:01:41;;;;;;;0.50;0.50;;;;;;;;;;5014131;28;20777;-65
2022/01/11 02:04:07;;;;;;;0.50;0.50;;;;;;;;;;5013293;28;20280;-65
2022/01/11 02:06:33;;;;;;;0.50;0.50;;;;;;;;;;5014028;28;20276;-65
2022/01/11 02:08:59;;;;;;;0.50;0.50;;;;;;;;;;5014029;28;20225;-66
2022/01/11 02:11:25;;;;;;;0.50;0.50;;;;;;;;;;5013994;28;20410;-65
2022/01/11 02:13:51;;;;;;;0.50;0.50;;;;;;;;;;5013587;28;20415;-65
2022/01/11 02:16:21;;;;;;;0.50;0.50;;;;;;;;;;5013518;28;20207;-65
2022/01/11 02:18:47;;;;;;;0.40;0.40;;;;;;;;;;5013822;28;20180;-65
2022/01/11 02:21:13;;;;;;;0.50;0.50;;;;;;;;;;5013687;28;20260;-65
2022/01/11 02:23:39;;;;;;;0.50;0.50;;;;;;;;;;5013294;28;20468;-65
2022/01/11 02:26:05;;;;;;;0.50;0.50;;;;;;;;;;5013492;28;20251;-65
2022/01/11 02:28:32;;;;;;;0.50;0.50;;;;;;;;;;5013620;28;20177;-65
2022/01/11 02:30:59;;;;;;;0.60;0.60;;;;;;;;;;5013597;28;20169;-65
2022/01/11 02:33:32;;;;;;;0.60;0.60;;;;;;;;;;5013413;28;20182;-65
2022/01/11 02:35:59;;;;;;;0.50;0.50;;;;;;;;;;5013527;28;20190;-65
2022/01/11 02:38:25;;;;;;;0.50;0.50;;;;;;;;;;5013595;28;20673;-65
2022/01/11 02:40:51;;;;;;;0.50;0.50;;;;;;;;;;4995345;28;20195;-65
2022/01/11 02:43:17;;;;;;;0.50;0.50;;;;;;;;;;5012893;28;20203;-66
2022/01/11 02:45:43;;;;;;;0.50;0.50;;;;;;;;;;5012693;28;20499;-65
2022/01/11 02:48:09;;;;;;;0.50;0.50;;;;;;;;;;5012875;28;20406;-65
2022/01/11 02:50:35;;;;;;;0.50;0.50;;;;;;;;;;5013004;28;20182;-65
2022/01/11 02:53:01;;;;;;;0.50;0.50;;;;;;;;;;5012766;28;20400;-65
2022/01/11 02:55:27;;;;;;;0.50;0.50;;;;;;;;;;5012875;28;20261;-65
2022/01/11 02:57:55;;;;;;;0.50;0.50;;;;;;;;;;5013102;28;20193;-65
2022/01/11 03:00:21;;;;;;;0.47;0.47;;;;;;;;;;5012877;28;20174;-65
2022/01/11 03:02:48;;;;;;;0.50;0.50;;;;;;;;;;5012688;28;20181;-65
2022/01/11 03:05:14;;;;;;;0.60;0.60;;;;;;;;;;5012717;28;20211;-65
2022/01/11 03:07:40;;;;;;;0.60;0.60;;;;;;;;;;5012679;28;20252;-65
2022/01/11 03:10:17;;;;;;;0.50;0.50;;;;;;;;;;5012762;28;20201;-65
2022/01/11 03:12:43;;;;;;;0.50;0.50;;;;;;;;;;5012512;28;20180;-65
2022/01/11 03:15:09;;;;;;;0.50;0.50;;;;;;;;;;5012686;28;20268;-65
2022/01/11 03:17:35;;;;;;;0.50;0.50;;;;;;;;;;5012509;28;20209;-65
2022/01/11 03:20:01;;;;;;;0.50;0.50;;;;;;;;;;5012423;28;20194;-65
2022/01/11 03:22:27;;;;;;;0.50;0.50;;;;;;;;;;5012354;28;20432;-65
2022/01/11 03:24:52;;;;;;;0.50;0.50;;;;;;;;;;5012444;28;20465;-65
2022/01/11 03:27:18;;;;;;;0.57;0.57;;;;;;;;;;5012246;28;20467;-65
2022/01/11 03:29:44;;;;;;;0.50;0.50;;;;;;;;;;5012470;28;20414;-65
2022/01/11 03:32:12;;;;;;;0.57;0.57;;;;;;;;;;5012329;28;20401;-65
2022/01/11 03:34:38;;;;;;;0.60;0.60;;;;;;;;;;4994677;28;20597;-65
2022/01/11 03:37:04;;;;;;;0.50;0.50;;;;;;;;;;5012267;28;20581;-65
2022/01/11 03:39:32;;;;;;;0.50;0.50;;;;;;;;;;5012287;28;20177;-65
2022/01/11 03:41:58;;;;;;;0.50;0.50;;;;;;;;;;5012175;28;20180;-65
2022/01/11 03:44:24;;;;;;;0.50;0.50;;;;;;;;;;5011852;28;20575;-65
2022/01/11 03:46:50;;;;;;;0.50;0.50;;;;;;;;;;5012040;28;20487;-66
2022/01/11 03:49:15;;;;;;;0.60;0.60;;;;;;;;;;5011968;28;20400;-65
2022/01/11 03:51:44;;;;;;;0.50;0.50;;;;;;;;;;5012114;28;20413;-65
2022/01/11 03:54:14;;;;;;;0.40;0.40;;;;;;;;;;5011945;28;20410;-65
2022/01/11 03:56:40;;;;;;;0.50;0.50;;;;;;;;;;5011894;28;20211;-65
2022/01/11 03:59:07;;;;;;;0.60;0.60;;;;;;;;;;5011872;28;20554;-65
2022/01/11 04:01:34;;;;;;;0.50;0.50;;;;;;;;;;5011886;28;20172;-65
2022/01/11 04:04:00;;;;;;;0.50;0.50;;;;;;;;;;5011615;28;20237;-65
2022/01/11 04:06:27;;;;;;;0.50;0.50;;;;;;;;;;5011828;28;20229;-65
2022/01/11 04:08:53;;;;;;;0.60;0.60;;;;;;;;;;5011943;28;20483;-65
2022/01/11 04:11:19;;;;;;;0.50;0.50;;;;;;;;;;5011733;28;20581;-65
2022/01/11 04:13:45;;;;;;;0.50;0.50;;;;;;;;;;5011516;28;21083;-65
2022/01/11 04:16:11;;;;;;;0.60;0.60;;;;;;;;;;5011075;28;20535;-65
2022/01/11 04:18:37;;;;;;;0.50;0.50;;;;;;;;;;5012985;28;20249;-65
2022/01/11 04:21:04;;;;;;;0.50;0.50;;;;;;;;;;5011759;28;20420;-65
2022/01/11 04:23:30;;;;;;;0.50;0.50;;;;;;;;;;5011366;28;20456;-65
2022/01/11 04:25:56;;;;;;;0.50;0.50;;;;;;;;;;5011550;28;20190;-65
2022/01/11 04:28:25;;;;;;;0.50;0.50;;;;;;;;;;5011626;28;20548;-65
2022/01/11 04:30:52;;;;;;;0.50;0.50;;;;;;;;;;5011473;28;20265;-65
2022/01/11 04:33:19;;;;;;;0.50;0.50;;;;;;;;;;5011243;28;20667;-65
2022/01/11 04:35:48;;;;;;;0.50;0.50;;;;;;;;;;5011729;28;20191;-65
2022/01/11 04:38:16;;;;;;;0.52;0.52;;;;;;;;;;5011641;28;20256;-65
2022/01/11 04:40:42;;;;;;;0.50;0.50;;;;;;;;;;5011497;28;20665;-65
2022/01/11 04:43:08;;;;;;;0.50;0.50;;;;;;;;;;5011203;28;20182;-65
2022/01/11 04:45:34;;;;;;;0.50;0.50;;;;;;;;;;5011308;28;20415;-65
2022/01/11 04:48:00;;;;;;;0.50;0.50;;;;;;;;;;5011392;28;20264;-65
2022/01/11 04:50:26;;;;;;;0.50;0.50;;;;;;;;;;5011451;28;20409;-65
2022/01/11 04:52:52;;;;;;;0.50;0.50;;;;;;;;;;5011231;28;20424;-65
2022/01/11 04:55:18;;;;;;;0.50;0.50;;;;;;;;;;5011481;28;20220;-65
2022/01/11 04:57:45;;;;;;;0.50;0.50;;;;;;;;;;5011233;28;20622;-65
2022/01/11 05:00:12;;;;;;;0.60;0.60;;;;;;;;;;5011221;28;20480;-65
2022/01/11 05:02:38;;;;;;;0.50;0.50;;;;;;;;;;5011018;28;20197;-65
2022/01/11 05:05:04;;;;;;;0.50;0.50;;;;;;;;;;4993565;28;20580;-65
2022/01/11 05:07:30;;;;;;;0.50;0.50;;;;;;;;;;5011035;28;20190;-66
2022/01/11 05:09:56;;;;;;;0.50;0.50;;;;;;;;;;5012777;28;20174;-66
2022/01/11 05:12:22;;;;;;;0.50;0.50;;;;;;;;;;5014735;28;20499;-65
2022/01/11 05:14:48;;;;;;;0.50;0.50;;;;;;;;;;5014738;28;20411;-65
2022/01/11 05:17:14;;;;;;;0.50;0.50;;;;;;;;;;5014648;28;20240;-65
2022/01/11 05:19:40;;;;;;;0.50;0.50;;;;;;;;;;5014785;28;20182;-65
2022/01/11 05:22:06;;;;;;;0.50;0.50;;;;;;;;;;5014802;28;20413;-65
2022/01/11 05:24:32;;;;;;;0.50;0.50;;;;;;;;;;5014468;28;20455;-65
2022/01/11 05:26:58;;;;;;;0.50;0.50;;;;;;;;;;5014500;28;20492;-65
2022/01/11 05:29:24;;;;;;;0.50;0.50;;;;;;;;;;5014528;28;20413;-65
2022/01/11 05:31:50;;;;;;;0.50;0.50;;;;;;;;;;4996929;28;20167;-65
2022/01/11 05:34:16;;;;;;;0.50;0.50;;;;;;;;;;5014281;28;20230;-66
2022/01/11 05:36:42;;;;;;;0.50;0.50;;;;;;;;;;5014338;28;20681;-65
2022/01/11 05:39:08;;;;;;;0.50;0.50;;;;;;;;;;5014451;28;20224;-65
2022/01/11 05:41:34;;;;;;;0.50;0.50;;;;;;;;;;5014242;28;20201;-65
2022/01/11 05:44:00;;;;;;;0.60;0.60;;;;;;;;;;5014014;28;20468;-65
2022/01/11 05:46:26;;;;;;;0.50;0.50;;;;;;;;;;5014121;28;20471;-65
2022/01/11 05:48:53;;;;;;;0.50;0.50;;;;;;;;;;5014157;28;20187;-65
2022/01/11 05:51:19;;;;;;;0.50;0.50;;;;;;;;;;5014182;28;20166;-65
2022/01/11 05:53:45;;;;;;;0.50;0.50;;;;;;;;;;5013961;28;20557;-65
2022/01/11 05:56:11;;;;;;;0.40;0.40;;;;;;;;;;5013941;28;20209;-65
2022/01/11 05:58:37;;;;;;;0.50;0.50;;;;;;;;;;5014078;28;20441;-65
2022/01/11 06:01:03;;;;;;;0.50;0.50;;;;;;;;;;5014252;28;20418;-65
2022/01/11 06:03:29;;;;;;;0.55;0.55;;;;;;;;;;5013768;28;20204;-65
2022/01/11 06:05:55;;;;;;;0.60;0.60;;;;;;;;;;4996327;28;20195;-65
2022/01/11 06:08:21;;;;;;;0.50;0.50;;;;;;;;;;4996467;28;20575;-65
2022/01/11 06:10:47;;;;;;;0.50;0.50;;;;;;;;;;5013784;28;20434;-65
2022/01/11 06:13:14;;;;;;;0.50;0.50;;;;;;;;;;5013878;28;20495;-65
2022/01/11 06:15:40;;;;;;;0.50;0.50;;;;;;;;;;5013725;28;20178;-65
2022/01/11 06:18:06;;;;;;;0.50;0.50;;;;;;;;;;5053973;22;20229;-63
2022/01/11 06:20:32;;;;;;;0.50;0.50;;;;;;;;;;5043437;28;20231;-62
2022/01/11 06:22:58;;;;;;;0.50;0.50;;;;;;;;;;5032420;28;20175;-63
2022/01/11 06:25:26;;;;;;;0.60;0.60;;;;;;;;;;5033901;28;20960;-61
2022/01/11 06:27:52;;;;;;;0.60;0.60;;;;;;;;;;5017803;28;20220;-61
2022/01/11 06:30:18;;;;;;;0.50;0.50;;;;;;;;;;4995617;28;20207;-63
2022/01/11 06:32:45;;;;;;;0.55;0.55;;;;;;;;;;5016906;28;20169;-63
2022/01/11 06:35:12;;;;;;;0.50;0.50;;;;;;;;;;5023403;28;20262;-63
2022/01/11 06:37:38;;;;;;;0.50;0.50;;;;;;;;;;5012875;28;20251;-63
2022/01/11 06:40:04;;;;;;;0.60;0.60;;;;;;;;;;5013191;28;20177;-63
2022/01/11 06:42:31;;;;;;;0.50;0.50;;;;;;;;;;5012425;28;20410;-63
2022/01/11 06:44:57;;;;;;;0.50;0.50;;;;;;;;;;5012964;28;20332;-63
2022/01/11 06:47:23;;;;;;;0.50;0.50;;;;;;;;;;4996228;28;20205;-63
2022/01/11 06:49:49;;;;;;;0.50;0.50;;;;;;;;;;5013710;28;20181;-63
2022/01/11 06:52:15;;;;;;;0.60;0.60;;;;;;;;;;5015750;28;20423;-63
2022/01/11 06:54:42;;;;;;;0.50;0.50;;;;;;;;;;5012839;28;20475;-63
2022/01/11 06:57:08;;;;;;;0.52;0.52;;;;;;;;;;5019112;28;20290;-63
2022/01/11 06:59:37;;;;;;;0.52;0.52;;;;;;;;;;5013097;28;20557;-63
2022/01/11 07:02:06;;;;;;;0.50;0.50;;;;;;;;;;5012548;28;20189;-63
2022/01/11 07:04:32;;;;;;;0.60;0.60;;;;;;;;;;5012077;28;20577;-63
2022/01/11 07:06:58;;;;;;;0.60;0.60;;;;;;;;;;5019181;28;20201;-63
2022/01/11 07:09:25;;;;;;;0.60;0.60;;;;;;;;;;5017789;28;20175;-63
2022/01/11 07:11:51;;;;;;;0.50;0.50;;;;;;;;;;5012390;28;20193;-63
2022/01/11 07:14:17;;;;;;;0.50;0.50;;;;;;;;;;5012213;28;20210;-63
2022/01/11 07:16:48;;;;;;;0.50;0.50;;;;;;;;;;5011908;28;20236;-63
2022/01/11 07:19:14;;;;;;;0.60;0.60;;;;;;;;;;5027981;28;20963;-63
2022/01/11 07:21:40;;;;;;;0.60;0.60;;;;;;;;;;5031624;28;20176;-63
2022/01/11 07:24:06;;;;;;;0.50;0.50;;;;;;;;;;5029962;28;20208;-63
2022/01/11 07:26:33;;;;;;;0.50;0.50;;;;;;;;;;5012814;28;20473;-63
2022/01/11 07:28:59;;;;;;;0.50;0.50;;;;;;;;;;5012109;28;20197;-63
2022/01/11 07:31:25;;;;;;;0.60;0.60;;;;;;;;;;5011948;28;20510;-63
2022/01/11 07:33:51;;;;;;;0.60;0.60;;;;;;;;;;5013670;28;20423;-63
2022/01/11 07:36:17;;;;;;;0.50;0.50;;;;;;;;;;5023637;28;20186;-63
2022/01/11 07:38:43;;;;;;;0.60;0.60;;;;;;;;;;5023743;28;20718;-63
2022/01/11 07:41:09;;;;;;;0.50;0.50;;;;;;;;;;5013004;28;20191;-62
2022/01/11 07:43:35;;;;;;;0.50;0.50;;;;;;;;;;5015013;28;20212;-63
2022/01/11 07:46:01;;;;;;;0.50;0.50;;;;;;;;;;5016061;28;20425;-63
2022/01/11 07:48:27;;;;;;;0.60;0.60;;;;;;;;;;5027481;28;20466;-63
2022/01/11 07:50:53;;;;;;;0.50;0.50;;;;;;;;;;5011583;28;20513;-62
2022/01/11 07:53:18;;;;;;;0.60;0.60;;;;;;;;;;4994014;28;20927;-62
2022/01/11 07:55:44;;;;;;;0.50;0.50;;;;;;;;;;5016880;28;20421;-63
2022/01/11 07:58:10;;;;;;;0.50;0.50;;;;;;;;;;5024493;28;20499;-64
2022/01/11 08:00:36;;;;;;;0.50;0.50;;;;;;;;;;5011514;28;20174;-64
2022/01/11 08:03:02;;;;;;;0.50;0.50;;;;;;;;;;5011295;28;20411;-64
2022/01/11 08:05:28;;;;;;;0.47;0.47;;;;;;;;;;5014709;28;20472;-64
2022/01/11 08:07:54;;;;;;;0.50;0.50;;;;;;;;;;5011339;28;20769;-63
2022/01/11 08:10:20;;;;;;;0.50;0.50;;;;;;;;;;5010435;28;20781;-62
2022/01/11 08:12:46;;;;;;;0.50;0.50;;;;;;;;;;5010915;28;20224;-63
2022/01/11 08:15:13;;;;;;;0.50;0.50;;;;;;;;;;5011065;28;20179;-63
2022/01/11 08:17:40;;;;;;;0.50;0.50;;;;;;;;;;5011379;28;20487;-63
2022/01/11 08:20:06;;;;;;;0.50;0.50;;;;;;;;;;5010751;28;20181;-63
2022/01/11 08:22:32;;;;;;;0.50;0.50;;;;;;;;;;5010692;28;20839;-63
2022/01/11 08:24:58;;;;;;;0.60;0.60;;;;;;;;;;5010871;28;20201;-61
2022/01/11 08:27:24;;;;;;;0.50;0.50;;;;;;;;;;5011142;28;20547;-63
2022/01/11 08:29:50;;;;;;;0.50;0.50;;;;;;;;;;5011083;28;20413;-61
2022/01/11 08:32:16;;;;;;;0.50;0.50;;;;;;;;;;5011255;28;20413;-63
2022/01/11 08:34:43;;;;;;;0.50;0.50;;;;;;;;;;5009920;28;20170;-63
2022/01/11 08:37:09;;;;;;;0.60;0.60;;;;;;;;;;5010968;28;20257;-63
2022/01/11 08:39:36;;;;;;;0.52;0.52;;;;;;;;;;5011301;28;20197;-63
2022/01/11 08:42:02;;;;;;;0.50;0.50;;;;;;;;;;5011133;28;20179;-64
2022/01/11 08:44:28;;;;;;;0.50;0.50;;;;;;;;;;5011583;28;20214;-63
2022/01/11 08:46:54;;;;;;;0.50;0.50;;;;;;;;;;5014365;28;20195;-63
2022/01/11 08:49:21;;;;;;;0.60;0.60;;;;;;;;;;5015132;28;20452;-61
2022/01/11 08:51:47;;;;;;;0.50;0.50;;;;;;;;;;5015252;28;20176;-64
2022/01/11 08:54:13;;;;;;;0.50;0.50;;;;;;;;;;5014785;28;20652;-64
2022/01/11 08:56:39;;;;;;;0.60;0.60;;;;;;;;;;5014821;28;20194;-62
2022/01/11 08:59:05;;;;;;;0.50;0.50;;;;;;;;;;5014175;28;20199;-63
2022/01/11 09:01:31;;;;;;;0.50;0.50;;;;;;;;;;5015294;28;20204;-63
2022/01/11 09:03:58;;;;;;;0.60;0.60;;;;;;;;;;5015016;28;20191;-64
2022/01/11 09:06:24;;;;;;;0.50;0.50;;;;;;;;;;5015016;28;20174;-64
2022/01/11 09:08:50;;;;;;;0.40;0.40;;;;;;;;;;5014751;28;20218;-63
2022/01/11 09:11:16;;;;;;;0.60;0.60;;;;;;;;;;5014708;28;20295;-63
2022/01/11 09:13:43;;;;;;;0.60;0.60;;;;;;;;;;5014342;28;20418;-63
2022/01/11 09:16:11;;;;;;;0.60;0.60;;;;;;;;;;5014417;28;20176;-63
2022/01/11 09:18:37;;;;;;;0.50;0.50;;;;;;;;;;5014928;28;20241;-64
2022/01/11 09:21:03;;;;;;;0.60;0.60;;;;;;;;;;5014784;28;20193;-64
2022/01/11 09:23:29;;;;;;;0.60;0.60;;;;;;;;;;5014508;28;20253;-61
2022/01/11 09:25:55;;;;;;;0.60;0.60;;;;;;;;;;4994909;28;20192;-63
2022/01/11 09:28:21;;;;;;;0.60;0.60;;;;;;;;;;5014532;28;20196;-63
2022/01/11 09:30:47;;;;;;;0.60;0.60;;;;;;;;;;5014165;28;20415;-62
2022/01/11 09:33:14;;;;;;;0.55;0.55;;;;;;;;;;5013587;28;20173;-63
2022/01/11 09:35:40;;;;;;;0.50;0.50;;;;;;;;;;4996155;28;20185;-63
2022/01/11 09:38:06;;;;;;;0.60;0.60;;;;;;;;;;5014048;28;20235;-63
2022/01/11 09:40:32;;;;;;;0.50;0.50;;;;;;;;;;5014291;28;20223;-63
2022/01/11 09:42:58;;;;;;;0.57;0.57;;;;;;;;;;4995659;28;20454;-63
2022/01/11 09:45:24;;;;;;;0.50;0.50;;;;;;;;;;5013932;28;20295;-63
2022/01/11 09:47:50;;;;;;;0.50;0.50;;;;;;;;;;4996048;28;20236;-63
2022/01/11 09:50:17;;;;;;;0.60;0.60;;;;;;;;;;5013952;28;20422;-63
2022/01/11 09:52:43;;;;;;;0.60;0.60;;;;;;;;;;5013588;28;20419;-63
2022/01/11 09:55:11;;;;;;;0.60;0.60;;;;;;;;;;5012997;28;20242;-63
2022/01/11 09:57:38;;;;;;;0.40;0.40;;;;;;;;;;5013850;28;20663;-63
2022/01/11 10:00:06;;;;;;;0.50;0.50;;;;;;;;;;4995977;28;20575;-63
2022/01/11 10:02:32;;;;;;;0.50;0.50;;;;;;;;;;5013624;28;20202;-63
2022/01/11 10:05:01;;;;;;;0.50;0.50;;;;;;;;;;5013230;28;20667;-62
2022/01/11 10:07:31;;;;;;;0.50;0.50;;;;;;;;;;5014049;28;20431;-62
2022/01/11 10:09:57;;;;;;;0.50;0.50;;;;;;;;;;5013717;28;20184;-62
2022/01/11 10:12:23;;;;;;;0.40;0.40;;;;;;;;;;5013172;28;20583;-62
2022/01/11 10:14:51;;;;;;;0.60;0.60;;;;;;;;;;5013363;28;20256;-63
2022/01/11 10:17:19;;;;;;;0.50;0.50;;;;;;;;;;5012827;28;20221;-62
2022/01/11 10:20:06;;;;;;;0.60;0.60;;;;;;;;;;5013445;28;20179;-62
2022/01/11 10:22:33;;;;;;;0.60;0.60;;;;;;;;;;5013307;28;20247;-62
2022/01/11 10:25:01;;;;;;;0.60;0.60;;;;;;;;;;5012956;28;20207;-62
2022/01/11 10:27:28;;;;;;;0.50;0.50;;;;;;;;;;5012472;28;20200;-62
2022/01/11 10:29:57;;;;;;;0.60;0.60;;;;;;;;;;5013259;28;20593;-62
2022/01/11 10:32:23;;;;;;;0.50;0.50;;;;;;;;;;5012507;28;20709;-62
2022/01/11 10:34:51;;;;;;;0.60;0.60;;;;;;;;;;5012707;28;20179;-62
2022/01/11 10:37:27;;;;;;;0.50;0.50;;;;;;;;;;5012709;28;20479;-62
2022/01/11 10:40:00;;;;;;;0.50;0.50;;;;;;;;;;5012601;28;20208;-62
2022/01/11 10:42:33;;;;;;;0.60;0.60;;;;;;;;;;5012852;28;20231;-62
2022/01/11 10:45:19;;;;;;;0.50;0.50;;;;;;;;;;5012985;28;20683;-62
2022/01/11 10:47:47;;;;;;;0.50;0.50;;;;;;;;;;5013009;28;20200;-62
2022/01/11 10:50:15;;;;;;;0.50;0.50;;;;;;;;;;5012104;28;20666;-62
2022/01/11 10:52:42;;;;;;;0.60;0.60;;;;;;;;;;5012643;28;20220;-62
2022/01/11 10:55:09;;;;;;;0.50;0.50;;;;;;;;;;5012788;28;20202;-63
2022/01/11 10:57:41;;;;;;;0.60;0.60;;;;;;;;;;5009102;28;20208;-63
2022/01/11 11:00:13;;;;;;;0.50;0.50;;;;;;;;;;5012554;28;20169;-63
2022/01/11 11:02:40;;;;;;;0.50;0.50;;;;;;;;;;5011960;28;20543;-62
2022/01/11 11:05:13;;;;;;;0.50;0.50;;;;;;;;;;5011886;28;20737;-63
2022/01/11 11:07:39;;;;;;;0.60;0.60;;;;;;;;;;5011708;28;20205;-63
2022/01/11 11:10:05;;;;;;;0.50;0.50;;;;;;;;;;5010949;28;20177;-62
2022/01/11 11:12:31;;;;;;;0.50;0.50;;;;;;;;;;5010384;28;20180;-62
2022/01/11 11:14:59;;;;;;;0.60;0.60;;;;;;;;;;5012058;28;20184;-62
2022/01/11 11:17:29;;;;;;;0.50;0.50;;;;;;;;;;5012128;28;20455;-62
2022/01/11 11:20:13;;;;;;;0.60;0.60;;;;;;;;;;5012387;28;20231;-62
2022/01/11 11:22:41;;;;;;;0.60;0.60;;;;;;;;;;5011789;28;20184;-62
2022/01/11 11:25:07;;;;;;;0.50;0.50;;;;;;;;;;5011894;28;20205;-63
2022/01/11 11:27:33;;;;;;;0.60;0.60;;;;;;;;;;5011797;28;20201;-63
2022/01/11 11:29:59;;;;;;;0.60;0.60;;;;;;;;;;5012172;28;20257;-62
2022/01/11 11:32:26;;;;;;;0.60;0.60;;;;;;;;;;5012013;28;20478;-62
2022/01/11 11:34:52;;;;;;;0.60;0.60;;;;;;;;;;5011760;28;20176;-62
2022/01/11 11:37:20;;;;;;;0.50;0.50;;;;;;;;;;5011846;28;20203;-62
2022/01/11 11:39:47;;;;;;;0.60;0.60;;;;;;;;;;5010356;28;20242;-62
2022/01/11 11:42:17;;;;;;;0.50;0.50;;;;;;;;;;5011777;28;20180;-62
2022/01/11 11:44:44;;;;;;;0.60;0.60;;;;;;;;;;5011545;28;20204;-62
2022/01/11 11:47:11;;;;;;;0.60;0.60;;;;;;;;;;5011477;28;20276;-63
2022/01/11 11:49:43;;;;;;;0.60;0.60;;;;;;;;;;5011699;28;20544;-62
2022/01/11 11:52:18;;;;;;;0.60;0.60;;;;;;;;;;5011515;28;20191;-62
2022/01/11 11:54:52;;;;;;;0.50;0.50;;;;;;;;;;5011370;28;20222;-62
2022/01/11 11:57:18;;;;;;;0.60;0.60;;;;;;;;;;5011126;28;20189;-62
2022/01/11 11:59:51;;;;;;;0.50;0.50;;;;;;;;;;5011719;28;20181;-62
2022/01/11 12:02:31;;;;;;;0.50;0.50;;;;;;;;;;5011196;28;20177;-62
2022/01/11 12:04:58;;;;;;;0.50;0.50;;;;;;;;;;5011511;28;20211;-62
2022/01/11 12:07:32;;;;;;;0.50;0.50;;;;;;;;;;5011033;28;20749;-62
2022/01/11 12:09:59;;;;;;;0.60;0.60;;;;;;;;;;5010223;28;20223;-62
2022/01/11 12:12:49;;;;;;;0.60;0.60;;;;;;;;;;5011308;28;20673;-62
2022/01/11 12:15:33;;;;;;;0.50;0.50;;;;;;;;;;5011204;28;20762;-62
2022/01/11 12:17:59;;;;;;;0.50;0.50;;;;;;;;;;5043012;22;20232;-65
2022/01/11 12:20:40;;;;;;;0.50;0.50;;;;;;;;;;5030323;28;20229;-65
2022/01/11 12:23:10;;;;;;;0.50;0.50;;;;;;;;;;5030833;28;20406;-65
2022/01/11 12:25:43;;;;;;;0.50;0.50;;;;;;;;;;5013370;28;20183;-65
2022/01/11 12:28:16;;;;;;;0.60;0.60;;;;;;;;;;5030812;28;20686;-65
2022/01/11 12:30:43;;;;;;;0.50;0.50;;;;;;;;;;5012845;28;20205;-65
2022/01/11 12:33:17;;;;;;;0.55;0.55;;;;;;;;;;5030978;28;20736;-65
2022/01/11 12:36:03;;;;;;;0.60;0.60;;;;;;;;;;5031163;28;20297;-65
2022/01/11 12:38:33;;;;;;;0.60;0.60;;;;;;;;;;5031037;28;20199;-65
2022/01/11 12:40:59;;;;;;;0.60;0.60;;;;;;;;;;5030303;28;20217;-65
2022/01/11 12:43:39;;;;;;;0.60;0.60;;;;;;;;;;5030685;28;20180;-64
2022/01/11 12:46:07;;;;;;;0.50;0.50;;;;;;;;;;5031078;28;20167;-65
2022/01/11 12:48:47;;;;;;;0.60;0.60;;;;;;;;;;5030821;28;20531;-65
2022/01/11 12:51:32;;;;;;;0.60;0.60;;;;;;;;;;5030632;28;20241;-64
2022/01/11 12:54:09;;;;;;;0.60;0.60;;;;;;;;;;5030450;28;20207;-64
2022/01/11 12:56:36;;;;;;;0.65;0.65;;;;;;;;;;5030886;28;20221;-65
2022/01/11 12:59:03;;;;;;;0.60;0.60;;;;;;;;;;5030941;28;20606;-65
2022/01/11 13:01:29;;;;;;;0.50;0.50;;;;;;;;;;5031099;28;20702;-65
2022/01/11 13:03:56;;;;;;;0.60;0.60;;;;;;;;;;5029953;28;20201;-65
2022/01/11 13:06:22;;;;;;;0.50;0.50;;;;;;;;;;5030849;28;20489;-65
2022/01/11 13:08:53;;;;;;;0.60;0.60;;;;;;;;;;5030684;28;20561;-65
2022/01/11 13:11:20;;;;;;;0.60;0.60;;;;;;;;;;5030664;28;20175;-65
2022/01/11 13:13:55;;;;;;;0.60;0.60;;;;;;;;;;5030341;28;20172;-65
2022/01/11 13:16:22;;;;;;;0.50;0.50;;;;;;;;;;5012370;28;20737;-65
2022/01/11 13:18:48;;;;;;;0.50;0.50;;;;;;;;;;5030974;28;20219;-66
2022/01/11 13:21:14;;;;;;;0.50;0.50;;;;;;;;;;5030849;28;20235;-66
2022/01/11 13:24:00;;;;;;;0.50;0.50;;;;;;;;;;5030353;28;20460;-66
2022/01/11 13:26:28;;;;;;;0.50;0.50;;;;;;;;;;5030386;28;20165;-65
2022/01/11 13:28:56;;;;;;;0.50;0.50;;;;;;;;;;5030449;28;20220;-66
2022/01/11 13:31:25;;;;;;;0.50;0.50;;;;;;;;;;5032916;28;20180;-65
2022/01/11 13:33:53;;;;;;;0.50;0.50;;;;;;;;;;5034161;28;20175;-65
2022/01/11 13:36:20;;;;;;;0.50;0.50;;;;;;;;;;5033933;28;20187;-66
2022/01/11 13:38:48;;;;;;;0.50;0.50;;;;;;;;;;5033937;28;20297;-66
2022/01/11 13:41:14;;;;;;;0.60;0.60;;;;;;;;;;5034101;28;20183;-65
2022/01/11 13:43:42;;;;;;;0.50;0.50;;;;;;;;;;5033900;28;20203;-66
2022/01/11 13:46:27;;;;;;;0.60;0.60;;;;;;;;;;5034492;28;20187;-66
2022/01/11 13:48:53;;;;;;;0.60;0.60;;;;;;;;;;5033538;28;20195;-66
2022/01/11 13:51:30;;;;;;;0.60;0.60;;;;;;;;;;5033812;28;20265;-66
2022/01/11 13:54:00;;;;;;;0.50;0.50;;;;;;;;;;5033519;28;20547;-66
2022/01/11 13:56:30;;;;;;;0.50;0.50;;;;;;;;;;5033842;28;20673;-65
2022/01/11 13:58:56;;;;;;;0.50;0.50;;;;;;;;;;5015621;28;20298;-65
2022/01/11 14:01:24;;;;;;;0.50;0.50;;;;;;;;;;5016199;28;20706;-66
2022/01/11 14:03:50;;;;;;;0.60;0.60;;;;;;;;;;5033459;28;20282;-66
2022/01/11 14:06:21;;;;;;;0.50;0.50;;;;;;;;;;5033337;28;20271;-65
2022/01/11 14:08:51;;;;;;;0.50;0.50;;;;;;;;;;5033517;28;20258;-66
2022/01/11 14:11:25;;;;;;;0.50;0.50;;;;;;;;;;5033151;28;20192;-65
2022/01/11 14:13:51;;;;;;;0.50;0.50;;;;;;;;;;5033230;28;20172;-65
2022/01/11 14:16:18;;;;;;;0.50;0.50;;;;;;;;;;5033037;28;20232;-65
2022/01/11 14:19:00;;;;;;;0.50;0.50;;;;;;;;;;5033190;28;20207;-66
2022/01/11 14:21:26;;;;;;;0.60;0.60;;;;;;;;;;5015054;28;20262;-66
2022/01/11 14:23:52;;;;;;;0.57;0.57;;;;;;;;;;5015272;28;20763;-65
2022/01/11 14:26:18;;;;;;;0.60;0.60;;;;;;;;;;5033145;28;20425;-65
2022/01/11 14:28:50;;;;;;;0.60;0.60;;;;;;;;;;5032971;28;20488;-65
2022/01/11 14:31:17;;;;;;;0.60;0.60;;;;;;;;;;5033267;28;20438;-65
2022/01/11 14:33:44;;;;;;;0.50;0.50;;;;;;;;;;5032575;28;20205;-66
2022/01/11 14:36:11;;;;;;;0.50;0.50;;;;;;;;;;5015248;28;20180;-65
2022/01/11 14:38:37;;;;;;;0.60;0.60;;;;;;;;;;5032885;28;20204;-65
2022/01/11 14:41:03;;;;;;;0.60;0.60;;;;;;;;;;5033054;28;20477;-65
2022/01/11 14:43:29;;;;;;;0.50;0.50;;;;;;;;;;5031499;28;20409;-65
2022/01/11 14:45:57;;;;;;;0.50;0.50;;;;;;;;;;5033454;28;20172;-65
2022/01/11 14:48:28;;;;;;;0.70;0.70;;;;;;;;;;5015177;28;20740;-65